createdAt,value
2018-02-03T17:21:41.249Z,3.40
2018-02-03T17:24:09.533Z,3.37
2018-02-03T17:26:36.997Z,3.10
2018-02-03T17:29:05.299Z,2.93
2018-02-03T17:31:32.784Z,3.63
2018-02-03T17:34:00.242Z,3.07
2018-02-03T17:36:33.425Z,2.93
2018-02-03T17:39:03.818Z,3.30
2018-02-03T17:41:32.042Z,3.07
2018-02-03T17:43:59.521Z,3.07
2018-02-03T17:46:32.638Z,3.60
2018-02-03T17:49:00.899Z,3.47
2018-02-03T17:51:29.135Z,3.70
2018-02-03T17:53:56.622Z,4.17
2018-02-03T17:56:29.710Z,3.93
2018-02-03T17:58:57.971Z,3.80
2018-02-03T18:01:25.474Z,3.70
2018-02-03T18:03:52.950Z,3.87
2018-02-03T18:06:20.445Z,3.83
2018-02-03T18:08:47.917Z,3.77
2018-02-03T18:11:15.392Z,4.90
2018-02-03T18:13:43.620Z,4.30
2018-02-03T18:16:11.119Z,4.03
2018-02-03T18:18:39.432Z,4.27
2018-02-03T18:21:06.922Z,4.77
2018-02-03T18:23:34.401Z,4.17
2018-02-03T18:26:02.687Z,5.00
2018-02-03T18:28:30.151Z,4.67
2018-02-03T18:30:58.389Z,4.57
2018-02-03T18:33:25.855Z,6.00
2018-02-03T18:35:53.314Z,4.23
2018-02-03T18:38:20.770Z,4.60
2018-02-03T18:40:48.251Z,4.70
2018-02-03T18:43:16.486Z,5.10
2018-02-03T18:45:46.604Z,4.97
2018-02-03T18:48:14.103Z,4.53
2018-02-03T18:50:42.405Z,5.13
2018-02-03T18:53:09.896Z,4.60
2018-02-03T18:55:37.398Z,5.37
2018-02-03T18:58:05.838Z,5.53
2018-02-03T19:00:33.327Z,5.63
2018-02-03T19:03:01.574Z,5.33
2018-02-03T19:05:29.227Z,5.83
2018-02-03T19:07:56.698Z,9.47
2018-02-03T19:10:24.183Z,9.97
2018-02-03T19:12:51.650Z,5.20
2018-02-03T19:15:19.143Z,6.37
2018-02-03T19:17:46.615Z,5.73
2018-02-03T19:20:14.110Z,7.97
2018-02-03T19:22:42.344Z,5.57
2018-02-03T19:25:10.604Z,5.87
2018-02-03T19:27:38.090Z,5.20
2018-02-03T19:30:05.580Z,5.50
2018-02-03T19:32:33.825Z,5.73
2018-02-03T19:35:01.307Z,5.60
2018-02-03T19:37:29.562Z,5.33
2018-02-03T19:39:57.039Z,5.53
2018-02-03T19:42:24.566Z,6.20
2018-02-03T19:44:51.986Z,5.90
2018-02-03T19:47:19.459Z,5.53
2018-02-03T19:49:46.931Z,5.40
2018-02-03T19:52:14.407Z,5.63
2018-02-03T19:54:41.868Z,5.23
2018-02-03T19:57:09.338Z,5.77
2018-02-03T19:59:36.810Z,6.00
2018-02-03T20:02:05.057Z,5.20
2018-02-03T20:04:32.515Z,5.50
2018-02-03T20:07:00.024Z,5.77
2018-02-03T20:09:27.501Z,5.87
2018-02-03T20:11:55.691Z,12.83
2018-02-03T20:14:23.159Z,5.87
2018-02-03T20:16:50.657Z,6.70
2018-02-03T20:19:18.911Z,6.40
2018-02-03T20:21:47.168Z,7.33
2018-02-03T20:24:14.720Z,6.43
2018-02-03T20:26:42.202Z,7.43
2018-02-03T20:29:09.678Z,6.70
2018-02-03T20:31:37.177Z,8.43
2018-02-03T20:34:04.639Z,7.10
2018-02-03T20:36:32.139Z,7.10
2018-02-03T20:39:00.397Z,7.43
2018-02-03T20:41:27.879Z,6.93
2018-02-03T20:43:56.121Z,7.60
2018-02-03T20:46:23.643Z,7.60
2018-02-03T20:48:51.140Z,7.23
2018-02-03T20:51:18.640Z,6.93
2018-02-03T20:53:46.875Z,6.97
2018-02-03T20:56:14.355Z,7.33
2018-02-03T20:58:42.725Z,7.80
2018-02-03T21:01:10.205Z,8.33
2018-02-03T21:03:38.663Z,8.80
2018-02-03T21:06:06.135Z,7.90
2018-02-03T21:08:34.411Z,8.27
2018-02-03T21:11:02.652Z,8.13
2018-02-03T21:13:30.126Z,8.40
2018-02-03T21:15:57.600Z,9.43
2018-02-03T21:18:25.846Z,7.93
2018-02-03T21:20:53.329Z,8.07
2018-02-03T21:23:21.633Z,8.73
2018-02-03T21:25:49.114Z,9.57
2018-02-03T21:28:16.573Z,8.00
2018-02-03T21:30:44.077Z,8.50
2018-02-03T21:33:11.559Z,12.73
2018-02-03T21:35:39.044Z,9.13
2018-02-03T21:38:06.897Z,9.10
2018-02-03T21:40:35.182Z,9.60
2018-02-03T21:43:02.693Z,8.73
2018-02-03T21:45:30.919Z,11.00
2018-02-03T21:47:58.399Z,17.97
2018-02-03T21:50:25.863Z,9.70
2018-02-03T21:52:53.323Z,9.60
2018-02-03T21:55:20.777Z,9.63
2018-02-03T21:57:48.246Z,9.53
2018-02-03T22:00:15.702Z,9.53
2018-02-03T22:02:43.178Z,9.60
2018-02-03T22:05:11.422Z,9.10
2018-02-03T22:07:38.889Z,9.33
2018-02-03T22:10:06.369Z,9.40
2018-02-03T22:12:34.611Z,9.50
2018-02-03T22:15:02.077Z,8.93
2018-02-03T22:17:30.290Z,8.93
2018-02-03T22:19:57.758Z,9.77
2018-02-03T22:22:25.225Z,8.80
2018-02-03T22:24:52.693Z,8.80
2018-02-03T22:27:20.163Z,9.43
2018-02-03T22:29:48.550Z,9.47
2018-02-03T22:32:16.015Z,9.57
2018-02-03T22:34:43.490Z,8.77
2018-02-03T22:37:10.942Z,9.63
2018-02-03T22:39:38.411Z,9.80
2018-02-03T22:42:05.872Z,9.30
2018-02-03T22:44:33.342Z,11.53
2018-02-03T22:47:00.833Z,12.87
2018-02-03T22:49:28.306Z,13.23
2018-02-03T22:51:55.785Z,14.33
2018-02-03T22:54:23.255Z,13.30
2018-02-03T22:56:51.516Z,8.97
2018-02-03T22:59:19.763Z,11.63
2018-02-03T23:01:47.234Z,8.77
2018-02-03T23:04:14.694Z,16.07
2018-02-03T23:06:42.174Z,17.93
2018-02-03T23:09:10.430Z,10.27
2018-02-03T23:11:37.904Z,10.63
2018-02-03T23:14:06.148Z,11.87
2018-02-03T23:16:33.620Z,13.13
2018-02-03T23:19:01.097Z,10.57
2018-02-03T23:21:29.333Z,9.43
2018-02-03T23:23:56.824Z,9.23
2018-02-03T23:26:24.286Z,9.13
2018-02-03T23:28:52.523Z,10.60
2018-02-03T23:31:20.002Z,10.03
2018-02-03T23:33:47.482Z,10.33
2018-02-03T23:36:15.725Z,10.20
2018-02-03T23:38:43.198Z,10.27
2018-02-03T23:41:10.679Z,11.47
2018-02-03T23:43:38.152Z,10.17
2018-02-03T23:46:05.644Z,11.07
2018-02-03T23:48:33.115Z,10.40
2018-02-03T23:51:00.606Z,11.63
2018-02-03T23:53:28.848Z,12.97
2018-02-03T23:55:56.328Z,12.80
2018-02-03T23:58:24.564Z,11.70
